Time;durP1;ratioP1;P1;durP2;ratioP2;P2;SDS_P1;SDS_P2;PMS_P1;PMS_P2;Temp;Humidity;BMP_temperature;BMP_pressure;BME280_temperature;BME280_humidity;BME280_pressure;Samples;Min_cycle;Max_cycle;Signal;HPM_P1;HPM_P2
2023/09/23 00:00:57;;;;;;;0.40;0.20;;;;;;;15.26;92.07;99659.16;5032225;28;20550;-52
2023/09/23 00:03:24;;;;;;;0.40;0.20;;;;;;;15.51;91.25;99658.59;5032054;28;20513;-51
2023/09/23 00:05:52;;;;;;;0.40;0.20;;;;;;;15.11;92.71;99652.88;5031971;28;20542;-52
2023/09/23 00:08:19;;;;;;;0.40;0.20;;;;;;;15.29;92.21;99664.31;5032267;28;20475;-52
2023/09/23 00:10:45;;;;;;;0.40;0.20;;;;;;;15.41;92.56;99666.28;5032252;28;20448;-51
2023/09/23 00:13:12;;;;;;;0.40;0.20;;;;;;;15.41;91.68;99670.78;5031868;28;20982;-52
2023/09/23 00:15:42;;;;;;;0.40;0.20;;;;;;;15.36;91.48;99672.88;5032139;28;20452;-51
2023/09/23 00:18:09;;;;;;;0.40;0.20;;;;;;;15.17;91.50;99674.88;5031609;28;20492;-51
2023/09/23 00:20:38;;;;;;;0.40;0.20;;;;;;;14.96;92.68;99668.94;5032226;28;20486;-52
2023/09/23 00:23:06;;;;;;;0.40;0.20;;;;;;;14.86;93.18;99686.47;5031957;28;20501;-52
2023/09/23 00:25:36;;;;;;;0.40;0.20;;;;;;;14.88;92.34;99681.88;5032080;28;20918;-52
2023/09/23 00:28:07;;;;;;;0.40;0.20;;;;;;;14.87;92.42;99682.84;5031939;28;20459;-52
2023/09/23 00:30:35;;;;;;;0.40;0.20;;;;;;;14.79;93.14;99675.22;5031944;28;20454;-52
2023/09/23 00:33:02;;;;;;;0.40;0.20;;;;;;;14.69;93.00;99684.72;5033031;28;20928;-52
2023/09/23 00:35:29;;;;;;;0.40;0.20;;;;;;;14.74;92.72;99688.88;5035732;28;20960;-51
2023/09/23 00:37:55;;;;;;;0.40;0.20;;;;;;;14.58;93.00;99695.16;5035988;28;20533;-52
2023/09/23 00:40:32;;;;;;;0.40;0.20;;;;;;;14.89;91.74;99694.31;5035525;28;20999;-52
2023/09/23 00:43:06;;;;;;;0.40;0.20;;;;;;;14.62;92.40;99691.34;5023372;28;20816;-52
2023/09/23 00:45:34;;;;;;;0.40;0.20;;;;;;;14.73;92.00;99692.50;5035359;28;20485;-52
2023/09/23 00:48:01;;;;;;;0.40;0.20;;;;;;;14.57;92.70;99704.13;5035332;28;20468;-52
2023/09/23 00:50:29;;;;;;;0.40;0.20;;;;;;;14.55;92.97;99700.69;5035699;28;20466;-52
2023/09/23 00:52:56;;;;;;;0.40;0.20;;;;;;;14.67;93.17;99705.34;5035505;28;20539;-52
2023/09/23 00:55:26;;;;;;;0.40;0.20;;;;;;;14.48;93.06;99701.00;5035189;28;20451;-52
2023/09/23 00:57:53;;;;;;;0.40;0.20;;;;;;;14.56;93.67;99703.25;5034691;28;20497;-52
2023/09/23 01:00:25;;;;;;;0.40;0.20;;;;;;;14.48;94.38;99700.13;5035461;28;20528;-52
2023/09/23 01:02:56;;;;;;;0.40;0.20;;;;;;;14.46;93.85;99702.03;5035121;28;20497;-52
2023/09/23 01:05:27;;;;;;;0.40;0.20;;;;;;;14.50;94.03;99711.59;5035430;28;20460;-52
2023/09/23 01:08:11;;;;;;;0.40;0.20;;;;;;;14.51;94.07;99716.00;5035088;28;20474;-52
2023/09/23 01:10:38;;;;;;;0.40;0.20;;;;;;;14.32;94.27;99717.91;5027628;28;20494;-52
2023/09/23 01:13:08;;;;;;;0.40;0.20;;;;;;;14.55;93.75;99714.06;5034995;28;20455;-52
2023/09/23 01:15:35;;;;;;;0.40;0.20;;;;;;;14.56;93.82;99716.63;5034923;28;20860;-52
2023/09/23 01:18:04;;;;;;;0.40;0.20;;;;;;;14.58;93.54;99706.72;5034690;28;20499;-52
2023/09/23 01:20:31;;;;;;;0.40;0.20;;;;;;;14.63;94.39;99710.00;5034879;28;20827;-52
2023/09/23 01:22:58;;;;;;;0.40;0.20;;;;;;;14.85;93.02;99715.03;5034573;28;21002;-52
2023/09/23 01:25:25;;;;;;;0.40;0.20;;;;;;;14.69;92.88;99711.47;5034978;28;20949;-53
2023/09/23 01:27:52;;;;;;;0.40;0.20;;;;;;;14.59;92.94;99716.47;5034691;28;20474;-52
2023/09/23 01:30:21;;;;;;;0.40;0.20;;;;;;;14.62;93.41;99715.44;5034605;28;20458;-52
2023/09/23 01:32:50;;;;;;;0.40;0.20;;;;;;;14.66;94.28;99715.16;5034539;28;20450;-52
2023/09/23 01:35:20;;;;;;;0.40;0.20;;;;;;;14.63;94.11;99711.81;5034413;28;20999;-51
2023/09/23 01:37:48;;;;;;;0.40;0.20;;;;;;;14.72;93.14;99717.53;5034384;28;20523;-51
2023/09/23 01:40:18;;;;;;;0.40;0.20;;;;;;;14.79;93.86;99720.72;5034622;28;20456;-52
2023/09/23 01:42:46;;;;;;;0.40;0.20;;;;;;;14.77;93.35;99726.16;5034421;28;20462;-52
2023/09/23 01:45:13;;;;;;;0.40;0.20;;;;;;;14.80;93.17;99730.47;5034095;28;20452;-51
2023/09/23 01:47:43;;;;;;;0.40;0.20;;;;;;;14.93;92.32;99723.50;5021206;28;20522;-52
2023/09/23 01:50:12;;;;;;;0.40;0.20;;;;;;;14.80;92.61;99725.13;5034452;28;20444;-51
2023/09/23 01:52:40;;;;;;;0.40;0.20;;;;;;;14.86;92.37;99730.16;5034203;28;20452;-52
2023/09/23 01:55:09;;;;;;;0.40;0.20;;;;;;;14.68;92.68;99731.16;5034278;28;20451;-53
2023/09/23 01:57:35;;;;;;;0.40;0.20;;;;;;;14.70;93.03;99737.28;5033766;28;20609;-52
2023/09/23 02:00:04;;;;;;;0.40;0.20;;;;;;;14.58;93.45;99736.13;5034133;28;20480;-51
2023/09/23 02:02:31;;;;;;;0.40;0.20;;;;;;;14.42;94.17;99735.19;5033968;28;20487;-51
2023/09/23 02:04:57;;;;;;;0.40;0.20;;;;;;;14.44;94.07;99744.91;5034014;28;20459;-52
2023/09/23 02:07:24;;;;;;;0.40;0.20;;;;;;;14.26;94.47;99739.63;5034025;28;20451;-52
2023/09/23 02:09:50;;;;;;;0.40;0.20;;;;;;;14.04;94.74;99747.91;5033764;28;21015;-52
2023/09/23 02:12:17;;;;;;;0.40;0.20;;;;;;;13.82;95.56;99753.44;5033870;28;20462;-52
2023/09/23 02:14:43;;;;;;;0.40;0.20;;;;;;;13.69;96.34;99755.00;5033742;28;20554;-51
2023/09/23 02:17:10;;;;;;;0.40;0.20;;;;;;;13.49;96.36;99750.66;5033655;28;20423;-52
2023/09/23 02:19:36;;;;;;;0.40;0.20;;;;;;;13.37;96.57;99753.94;5033468;28;21046;-51
2023/09/23 02:22:06;;;;;;;0.40;0.20;;;;;;;13.19;97.01;99747.69;5033971;28;20494;-52
2023/09/23 02:24:36;;;;;;;0.40;0.20;;;;;;;13.11;97.43;99756.03;5033624;28;20443;-52
2023/09/23 02:27:03;;;;;;;0.40;0.20;;;;;;;12.92;98.05;99755.16;5033642;28;20451;-52
2023/09/23 02:29:31;;;;;;;0.40;0.20;;;;;;;12.42;99.06;99767.19;5033202;28;20471;-51
2023/09/23 02:31:57;;;;;;;0.40;0.20;;;;;;;12.63;98.90;99767.19;5033682;28;20451;-52
2023/09/23 02:34:24;;;;;;;0.40;0.20;;;;;;;12.60;98.44;99775.28;5033520;28;20471;-52
2023/09/23 02:36:50;;;;;;;0.40;0.20;;;;;;;12.54;98.59;99772.91;5033288;28;20539;-52
2023/09/23 02:39:20;;;;;;;0.40;0.20;;;;;;;12.58;98.96;99779.84;5033063;28;20548;-52
2023/09/23 02:41:47;;;;;;;0.40;0.20;;;;;;;12.55;98.55;99775.50;5033259;28;20515;-51
2023/09/23 02:44:24;;;;;;;0.40;0.20;;;;;;;12.45;98.79;99774.19;5033067;28;20992;-52
2023/09/23 02:46:52;;;;;;;0.40;0.20;;;;;;;12.33;98.76;99780.06;5033388;28;20486;-52
2023/09/23 02:49:20;;;;;;;0.40;0.20;;;;;;;12.39;98.90;99790.47;5033096;28;20479;-52
2023/09/23 02:51:48;;;;;;;0.40;0.20;;;;;;;12.30;98.43;99786.38;5033131;28;20526;-52
2023/09/23 02:54:18;;;;;;;0.40;0.20;;;;;;;12.52;98.01;99790.78;5033200;28;20452;-52
2023/09/23 02:56:50;;;;;;;0.40;0.20;;;;;;;12.15;97.86;99798.56;5032156;28;20451;-52
2023/09/23 02:59:25;;;;;;;0.40;0.20;;;;;;;12.04;98.21;99798.16;5046891;22;20500;-52
2023/09/23 03:01:53;;;;;;;0.40;0.20;;;;;;;11.94;100.00;99799.50;5032909;28;20574;-52
2023/09/23 03:04:23;;;;;;;0.40;0.20;;;;;;;11.84;99.93;99806.13;5032893;28;20452;-51
2023/09/23 03:06:55;;;;;;;0.40;0.20;;;;;;;11.76;99.16;99806.41;5032640;28;20447;-51
2023/09/23 03:09:24;;;;;;;0.40;0.20;;;;;;;11.85;99.21;99807.88;5021772;28;21015;-51
2023/09/23 03:11:58;;;;;;;0.40;0.20;;;;;;;11.82;99.30;99816.00;4997520;28;20541;-51
2023/09/23 03:14:36;;;;;;;0.40;0.20;;;;;;;11.79;99.27;99824.13;5006517;28;20535;-52
2023/09/23 03:17:03;;;;;;;0.40;0.20;;;;;;;11.70;99.63;99822.66;4993448;28;20456;-52
2023/09/23 03:19:32;;;;;;;0.40;0.20;;;;;;;11.84;99.63;99825.66;5007335;28;20576;-51
2023/09/23 03:22:00;;;;;;;0.40;0.20;;;;;;;11.76;98.93;99838.38;5013080;28;20519;-52
2023/09/23 03:24:28;;;;;;;0.40;0.20;;;;;;;11.96;99.24;99839.41;5012929;28;20452;-51
2023/09/23 03:26:58;;;;;;;0.40;0.20;;;;;;;11.98;99.38;99840.19;5012963;28;20540;-52
2023/09/23 03:29:28;;;;;;;0.40;0.20;;;;;;;12.20;99.59;99843.69;5012714;28;20554;-52
2023/09/23 03:31:55;;;;;;;0.40;0.20;;;;;;;12.36;98.96;99850.09;5012736;28;20448;-52
2023/09/23 03:34:23;;;;;;;0.40;0.20;;;;;;;12.35;99.05;99847.50;5012861;28;20484;-51
2023/09/23 03:36:51;;;;;;;0.40;0.20;;;;;;;12.39;99.19;99844.63;5012838;28;20532;-51
2023/09/23 03:39:19;;;;;;;0.40;0.20;;;;;;;12.41;99.13;99841.91;5012529;28;20576;-52
2023/09/23 03:41:49;;;;;;;0.40;0.20;;;;;;;12.36;99.68;99847.44;5001477;28;20501;-52
2023/09/23 03:44:16;;;;;;;0.40;0.20;;;;;;;12.46;99.09;99850.56;5011377;28;20452;-52
2023/09/23 03:46:47;;;;;;;0.40;0.20;;;;;;;12.25;99.84;99835.50;5012443;28;20827;-52
2023/09/23 03:49:13;;;;;;;0.40;0.20;;;;;;;12.23;99.32;99840.03;5012461;28;20460;-51
2023/09/23 03:51:40;;;;;;;0.40;0.20;;;;;;;12.18;100.00;99844.66;5012766;28;20487;-51
2023/09/23 03:54:06;;;;;;;0.40;0.20;;;;;;;12.02;99.69;99850.66;5011138;28;20536;-52
2023/09/23 03:56:34;;;;;;;0.40;0.20;;;;;;;11.92;100.00;99853.75;5012458;28;20452;-52
2023/09/23 03:59:05;;;;;;;0.40;0.20;;;;;;;11.90;99.79;99856.47;5011859;28;20992;-52
2023/09/23 04:01:33;;;;;;;0.40;0.20;;;;;;;11.91;99.60;99860.00;5012552;28;20444;-50
2023/09/23 04:04:01;;;;;;;0.40;0.20;;;;;;;11.84;99.27;99862.06;5012643;28;20544;-51
2023/09/23 04:06:29;;;;;;;0.40;0.20;;;;;;;11.90;98.95;99866.25;5011346;28;20941;-52
2023/09/23 04:08:59;;;;;;;0.40;0.20;;;;;;;11.81;99.51;99864.88;5004442;28;20469;-52
2023/09/23 04:11:26;;;;;;;0.40;0.20;;;;;;;11.81;99.90;99863.06;5003719;28;21129;-51
2023/09/23 04:13:53;;;;;;;0.40;0.20;;;;;;;12.05;99.83;99878.94;5005262;28;20449;-52
2023/09/23 04:16:20;;;;;;;0.40;0.20;;;;;;;12.14;98.39;99870.59;5016341;28;20818;-52
2023/09/23 04:18:46;;;;;;;0.40;0.20;;;;;;;11.92;98.93;99875.91;5016343;28;20583;-52
2023/09/23 04:21:13;;;;;;;0.40;0.20;;;;;;;11.88;99.90;99871.66;5016152;28;20512;-52
2023/09/23 04:23:40;;;;;;;0.40;0.20;;;;;;;11.90;99.84;99876.91;5016106;28;20449;-52
2023/09/23 04:26:08;;;;;;;0.40;0.20;;;;;;;11.78;100.00;99870.25;5016058;28;20500;-52
2023/09/23 04:28:34;;;;;;;0.40;0.20;;;;;;;11.68;99.80;99869.78;5015976;28;21156;-52
2023/09/23 04:31:01;;;;;;;0.40;0.20;;;;;;;11.52;99.77;99861.53;5016086;28;20539;-52
2023/09/23 04:33:28;;;;;;;0.40;0.20;;;;;;;11.32;99.51;99873.88;5015946;28;20882;-52
2023/09/23 04:35:56;;;;;;;0.40;0.20;;;;;;;11.10;100.00;99884.44;5015843;28;20475;-51
2023/09/23 04:38:24;;;;;;;0.40;0.20;;;;;;;10.94;100.00;99879.69;5015667;28;20519;-52
2023/09/23 04:40:51;;;;;;;0.40;0.20;;;;;;;10.68;100.00;99888.59;5011840;28;20882;-52
2023/09/23 04:43:19;;;;;;;0.40;0.20;;;;;;;10.82;100.00;99892.56;5006711;28;21035;-52
2023/09/23 04:45:46;;;;;;;0.40;0.20;;;;;;;10.70;100.00;99899.22;5015758;28;20861;-52
2023/09/23 04:48:14;;;;;;;0.40;0.20;;;;;;;10.86;100.00;99900.38;5015792;28;20448;-51
2023/09/23 04:50:44;;;;;;;0.40;0.20;;;;;;;10.62;100.00;99904.78;5015587;28;20466;-52
2023/09/23 04:53:11;;;;;;;0.40;0.20;;;;;;;10.73;100.00;99907.06;5015485;28;20543;-51
2023/09/23 04:55:38;;;;;;;0.40;0.20;;;;;;;10.94;100.00;99906.28;5015598;28;20452;-52
2023/09/23 04:58:06;;;;;;;0.40;0.20;;;;;;;10.88;100.00;99917.16;5015530;28;20495;-52
2023/09/23 05:00:34;;;;;;;0.40;0.20;;;;;;;10.92;100.00;99918.78;5015216;28;20460;-51
2023/09/23 05:03:03;;;;;;;0.40;0.20;;;;;;;11.00;100.00;99920.28;5015765;28;20445;-52
2023/09/23 05:05:29;;;;;;;0.40;0.20;;;;;;;10.92;100.00;99932.06;5015274;28;20444;-52
2023/09/23 05:07:56;;;;;;;0.40;0.20;;;;;;;10.76;100.00;99932.66;5002422;28;20524;-52
2023/09/23 05:10:23;;;;;;;0.40;0.20;;;;;;;10.75;100.00;99937.13;5008962;28;20474;-52
2023/09/23 05:12:54;;;;;;;0.40;0.20;;;;;;;10.80;100.00;99948.44;4998360;28;20553;-51
2023/09/23 05:15:21;;;;;;;0.40;0.20;;;;;;;10.76;100.00;99949.47;5008211;28;20492;-52
2023/09/23 05:17:49;;;;;;;0.40;0.20;;;;;;;10.74;100.00;99961.97;5008895;28;20518;-51
2023/09/23 05:20:25;;;;;;;0.40;0.20;;;;;;;10.85;100.00;99958.94;5014298;28;20479;-52
2023/09/23 05:22:53;;;;;;;0.40;0.20;;;;;;;10.98;100.00;99961.13;5014883;28;20455;-52
2023/09/23 05:25:20;;;;;;;0.40;0.20;;;;;;;11.06;100.00;99966.13;5015053;28;20449;-52
2023/09/23 05:27:46;;;;;;;0.40;0.20;;;;;;;11.15;100.00;99976.47;5015021;28;20943;-52
2023/09/23 05:30:13;;;;;;;0.40;0.20;;;;;;;11.26;100.00;99976.09;5015033;28;20472;-52
2023/09/23 05:32:39;;;;;;;0.40;0.20;;;;;;;11.30;100.00;99983.03;5014753;28;20451;-52
2023/09/23 05:35:09;;;;;;;0.40;0.20;;;;;;;11.19;100.00;99983.41;5014746;28;20455;-52
2023/09/23 05:37:40;;;;;;;0.40;0.20;;;;;;;10.97;100.00;99991.28;5014881;28;20519;-52
2023/09/23 05:40:10;;;;;;;0.40;0.20;;;;;;;11.10;100.00;99997.06;5014602;28;20907;-52
2023/09/23 05:42:36;;;;;;;0.43;0.43;;;;;;;11.20;100.00;99994.91;5001374;28;20950;-52
2023/09/23 05:45:03;;;;;;;0.40;0.20;;;;;;;11.38;100.00;99998.72;5014711;28;20453;-52
2023/09/23 05:47:30;;;;;;;0.40;0.20;;;;;;;11.33;100.00;100006.84;5014372;28;20544;-52
2023/09/23 05:49:58;;;;;;;0.40;0.20;;;;;;;11.39;100.00;100003.97;5014884;28;20835;-52
2023/09/23 05:52:25;;;;;;;0.40;0.20;;;;;;;11.41;100.00;100006.59;5014468;28;20543;-51
2023/09/23 05:54:51;;;;;;;0.40;0.20;;;;;;;11.48;100.00;100006.28;5014612;28;20448;-51
2023/09/23 05:57:18;;;;;;;0.40;0.20;;;;;;;11.37;100.00;100018.25;5014385;28;20445;-52
2023/09/23 05:59:44;;;;;;;0.40;0.20;;;;;;;11.40;100.00;100024.34;5014181;28;20599;-52
2023/09/23 06:02:11;;;;;;;0.40;0.20;;;;;;;11.47;100.00;100033.81;5014421;28;20453;-52
2023/09/23 06:04:38;;;;;;;0.40;0.20;;;;;;;11.40;100.00;100035.00;5014516;28;20555;-52
2023/09/23 06:07:05;;;;;;;0.40;0.20;;;;;;;11.44;100.00;100033.94;5008730;28;20456;-52
2023/09/23 06:09:31;;;;;;;0.40;0.20;;;;;;;11.55;100.00;100034.44;5007159;28;20464;-52
2023/09/23 06:11:57;;;;;;;0.40;0.20;;;;;;;11.66;100.00;100034.03;4998345;28;20493;-52
2023/09/23 06:14:25;;;;;;;0.40;0.20;;;;;;;11.81;100.00;100037.97;5006889;28;20485;-50
2023/09/23 06:16:51;;;;;;;0.40;0.20;;;;;;;11.81;100.00;100045.94;5014406;28;20510;-50
2023/09/23 06:19:19;;;;;;;0.40;0.20;;;;;;;11.82;100.00;100051.22;5014000;28;20492;-50
2023/09/23 06:21:46;;;;;;;0.40;0.20;;;;;;;11.93;100.00;100052.59;5007746;28;20458;-50
2023/09/23 06:24:12;;;;;;;0.40;0.30;;;;;;;11.94;100.00;100052.53;5007362;28;20511;-50
2023/09/23 06:26:39;;;;;;;0.40;0.20;;;;;;;12.10;100.00;100052.81;5012738;28;20543;-50
2023/09/23 06:29:05;;;;;;;0.40;0.20;;;;;;;12.24;100.00;100061.16;5013539;28;20893;-51
2023/09/23 06:31:32;;;;;;;0.40;0.20;;;;;;;12.38;100.00;100061.47;5012778;28;20456;-50
2023/09/23 06:33:58;;;;;;;0.40;0.20;;;;;;;12.41;100.00;100061.34;5013791;28;20457;-50
2023/09/23 06:36:25;;;;;;;0.40;0.20;;;;;;;12.61;100.00;100067.66;5013824;28;20929;-50
2023/09/23 06:38:51;;;;;;;0.40;0.20;;;;;;;12.80;100.00;100068.66;5013469;28;20500;-51
2023/09/23 06:41:18;;;;;;;0.40;0.20;;;;;;;12.95;100.00;100080.50;5006855;28;20540;-49
2023/09/23 06:43:44;;;;;;;0.40;0.20;;;;;;;13.01;100.00;100077.56;5007362;28;20448;-51
2023/09/23 06:46:11;;;;;;;0.40;0.20;;;;;;;13.37;100.00;100083.19;5013655;28;20977;-50
2023/09/23 06:48:38;;;;;;;0.40;0.20;;;;;;;13.53;99.15;100084.22;5013467;28;20468;-50
2023/09/23 06:51:04;;;;;;;0.40;0.20;;;;;;;13.49;99.21;100084.44;5013577;28;20457;-50
2023/09/23 06:53:37;;;;;;;0.40;0.20;;;;;;;13.72;99.23;100086.97;5010064;28;20528;-50
2023/09/23 06:56:04;;;;;;;0.40;0.20;;;;;;;13.97;97.49;100088.50;5009874;28;20967;-50
2023/09/23 06:58:30;;;;;;;0.40;0.20;;;;;;;14.19;97.39;100091.94;5002338;28;20551;-50
2023/09/23 07:00:57;;;;;;;0.40;0.20;;;;;;;14.08;97.84;100091.56;4999348;28;20830;-50
2023/09/23 07:03:24;;;;;;;0.40;0.20;;;;;;;14.14;97.89;100096.66;4996880;28;20567;-50
2023/09/23 07:05:51;;;;;;;0.40;0.20;;;;;;;14.54;96.86;100094.81;5020883;23;20507;-52
2023/09/23 07:08:17;;;;;;;0.40;0.20;;;;;;;14.49;96.36;100103.03;5009768;28;20448;-52
2023/09/23 07:10:44;;;;;;;0.40;0.20;;;;;;;14.52;97.01;100102.88;5000569;28;20454;-51
2023/09/23 07:13:11;;;;;;;0.40;0.20;;;;;;;14.55;96.48;100112.59;5008902;28;20551;-51
2023/09/23 07:15:40;;;;;;;0.40;0.20;;;;;;;14.47;95.15;100105.78;5009838;28;20476;-52
2023/09/23 07:18:08;;;;;;;0.40;0.20;;;;;;;14.52;95.46;100117.13;4996645;28;20541;-52
2023/09/23 07:20:35;;;;;;;0.40;0.20;;;;;;;14.74;94.26;100116.97;4999382;28;20456;-52
2023/09/23 07:23:01;;;;;;;0.40;0.20;;;;;;;14.84;94.17;100112.03;5002872;28;20527;-52
2023/09/23 07:25:28;;;;;;;0.40;0.20;;;;;;;14.94;93.95;100128.50;5000730;28;20476;-52
2023/09/23 07:27:57;;;;;;;0.40;0.20;;;;;;;14.96;94.59;100130.19;4996458;28;20427;-53
2023/09/23 07:30:24;;;;;;;0.40;0.20;;;;;;;15.08;94.15;100126.91;4998343;28;20533;-53
2023/09/23 07:32:50;;;;;;;0.40;0.20;;;;;;;15.28;92.44;100128.56;5002935;28;20452;-52
2023/09/23 07:35:17;;;;;;;0.40;0.20;;;;;;;15.19;93.23;100128.16;5000895;28;20527;-53
2023/09/23 07:37:44;;;;;;;0.40;0.20;;;;;;;15.23;91.69;100137.78;4996013;28;20448;-53
2023/09/23 07:40:15;;;;;;;0.40;0.20;;;;;;;15.46;92.20;100145.50;4997456;28;20930;-53
2023/09/23 07:42:41;;;;;;;0.40;0.20;;;;;;;15.18;92.21;100147.84;5002823;28;20811;-53
2023/09/23 07:45:09;;;;;;;0.40;0.20;;;;;;;15.44;90.67;100151.88;5001132;28;21010;-53
2023/09/23 07:47:35;;;;;;;0.40;0.20;;;;;;;15.65;92.27;100165.09;4995734;28;20523;-52
2023/09/23 07:50:02;;;;;;;0.40;0.20;;;;;;;15.38;90.65;100177.19;4997362;28;20457;-52
2023/09/23 07:52:29;;;;;;;0.40;0.20;;;;;;;15.40;91.03;100162.78;5002390;28;20461;-52
2023/09/23 07:54:56;;;;;;;0.40;0.20;;;;;;;15.47;90.01;100167.81;5002007;28;20552;-52
2023/09/23 07:57:22;;;;;;;0.40;0.20;;;;;;;15.59;91.05;100168.06;4995798;28;20453;-52
2023/09/23 07:59:48;;;;;;;0.40;0.20;;;;;;;15.66;90.47;100166.84;4990430;28;20541;-51
2023/09/23 08:02:15;;;;;;;0.40;0.20;;;;;;;15.74;90.24;100171.78;5002259;28;20572;-51
2023/09/23 08:04:41;;;;;;;0.40;0.20;;;;;;;15.62;89.11;100178.66;4990112;28;20875;-51
2023/09/23 08:07:08;;;;;;;0.40;0.20;;;;;;;15.46;90.14;100171.44;4982556;28;20461;-51
2023/09/23 08:09:34;;;;;;;0.40;0.20;;;;;;;15.49;89.86;100174.84;4982993;28;20804;-51
2023/09/23 08:12:01;;;;;;;0.40;0.20;;;;;;;15.69;89.11;100179.19;4992412;28;20808;-51
2023/09/23 08:14:27;;;;;;;0.40;0.20;;;;;;;15.77;89.44;100182.38;4982571;28;20458;-50
2023/09/23 08:16:54;;;;;;;0.40;0.20;;;;;;;15.84;88.76;100178.41;4969742;28;20480;-51
2023/09/23 08:19:20;;;;;;;0.40;0.20;;;;;;;15.96;89.12;100175.09;4982224;28;20457;-51
2023/09/23 08:21:47;;;;;;;0.40;0.20;;;;;;;16.26;88.45;100177.94;4988464;28;20461;-51
2023/09/23 08:24:13;;;;;;;0.40;0.20;;;;;;;16.17;87.53;100182.94;4988780;28;20925;-51
2023/09/23 08:26:40;;;;;;;0.40;0.20;;;;;;;16.21;88.31;100184.53;4982913;28;20528;-51
2023/09/23 08:29:07;;;;;;;0.40;0.20;;;;;;;16.47;88.40;100189.34;4982039;28;20486;-50
2023/09/23 08:31:33;;;;;;;0.40;0.20;;;;;;;16.62;86.10;100194.81;4988118;28;20924;-52
2023/09/23 08:34:00;;;;;;;0.40;0.20;;;;;;;16.73;85.63;100203.19;4988435;28;20479;-51
2023/09/23 08:36:26;;;;;;;0.40;0.20;;;;;;;16.98;85.66;100199.97;4983031;28;20507;-51
2023/09/23 08:38:53;;;;;;;0.40;0.20;;;;;;;16.67;86.14;100215.13;4981694;28;20523;-51
2023/09/23 08:41:21;;;;;;;0.40;0.20;;;;;;;16.76;86.43;100214.63;4966645;28;20545;-51
2023/09/23 08:43:51;;;;;;;0.40;0.20;;;;;;;17.08;85.90;100211.94;4988397;28;20873;-50
2023/09/23 08:46:19;;;;;;;0.40;0.20;;;;;;;17.20;84.92;100208.56;4983181;28;20508;-52
2023/09/23 08:48:46;;;;;;;0.40;0.20;;;;;;;17.33;84.25;100208.72;4981156;28;20451;-52
2023/09/23 08:51:13;;;;;;;0.40;0.20;;;;;;;17.34;83.44;100203.25;4986456;28;20458;-52
2023/09/23 08:53:41;;;;;;;0.40;0.20;;;;;;;17.83;83.25;100205.78;4988144;28;20452;-52
2023/09/23 08:56:08;;;;;;;0.40;0.20;;;;;;;17.43;82.10;100202.75;4984078;28;20480;-52
2023/09/23 08:58:34;;;;;;;0.40;0.20;;;;;;;17.08;81.58;100209.25;4978812;28;20868;-52
2023/09/23 09:01:01;;;;;;;0.40;0.20;;;;;;;16.75;83.36;100206.66;4983748;28;20482;-51
2023/09/23 09:03:29;;;;;;;0.40;0.20;;;;;;;16.87;83.75;100206.84;4981033;28;20502;-52
2023/09/23 09:05:55;;;;;;;0.40;0.20;;;;;;;17.29;82.79;100208.03;4984708;28;20568;-52
2023/09/23 09:08:22;;;;;;;0.40;0.20;;;;;;;16.82;83.59;100219.63;4988135;28;20451;-53
2023/09/23 09:10:49;;;;;;;0.40;0.20;;;;;;;17.14;83.04;100223.22;4984779;28;20460;-51
2023/09/23 09:13:17;;;;;;;0.40;0.20;;;;;;;17.23;83.44;100221.81;4988279;28;20517;-51
2023/09/23 09:15:44;;;;;;;0.40;0.20;;;;;;;17.52;82.18;100220.13;4984119;28;20463;-52
2023/09/23 09:18:11;;;;;;;0.40;0.20;;;;;;;17.73;82.06;100224.28;4963826;28;20450;-56
2023/09/23 09:20:37;;;;;;;0.40;0.20;;;;;;;17.62;82.29;100220.47;4983224;28;20458;-52
2023/09/23 09:23:04;;;;;;;0.40;0.20;;;;;;;17.62;81.05;100215.94;4987278;28;20881;-52
2023/09/23 09:25:31;;;;;;;0.40;0.20;;;;;;;17.85;81.28;100237.97;4985336;28;20473;-51
2023/09/23 09:27:58;;;;;;;0.40;0.20;;;;;;;17.72;80.77;100229.75;4980763;28;20515;-51
2023/09/23 09:30:25;;;;;;;0.40;0.20;;;;;;;17.72;79.98;100236.00;4982480;28;20454;-51
2023/09/23 09:32:56;;;;;;;0.40;0.20;;;;;;;18.02;79.82;100233.31;4987294;28;20966;-51
2023/09/23 09:35:25;;;;;;;0.40;0.20;;;;;;;18.11;78.82;100241.78;4986114;28;20971;-51
2023/09/23 09:37:56;;;;;;;0.40;0.20;;;;;;;18.14;78.96;100233.53;4961988;28;20794;-53
2023/09/23 09:40:41;;;;;;;0.40;0.20;;;;;;;18.13;79.20;100237.19;4967360;28;20483;-52
2023/09/23 09:43:08;;;;;;;0.40;0.20;;;;;;;18.38;77.72;100237.41;4983524;28;20504;-51
2023/09/23 09:45:40;;;;;;;0.40;0.20;;;;;;;18.12;77.34;100240.84;4980392;28;20462;-51
2023/09/23 09:48:08;;;;;;;0.40;0.20;;;;;;;18.30;77.16;100245.09;4983696;28;20501;-52
2023/09/23 09:50:38;;;;;;;0.40;0.20;;;;;;;18.33;76.75;100239.50;4990879;28;20897;-50
2023/09/23 09:53:06;;;;;;;0.40;0.20;;;;;;;18.41;74.62;100239.91;4982707;28;20545;-51
2023/09/23 09:55:33;;;;;;;0.40;0.20;;;;;;;18.70;76.45;100234.56;4986838;28;20548;-52
2023/09/23 09:58:01;;;;;;;0.40;0.20;;;;;;;18.92;74.70;100245.72;4981561;28;20840;-52
2023/09/23 10:00:28;;;;;;;0.40;0.20;;;;;;;18.90;73.42;100234.16;4978918;28;20925;-51
2023/09/23 10:03:05;;;;;;;0.40;0.20;;;;;;;18.81;73.29;100240.16;4981320;28;20529;-52
2023/09/23 10:05:40;;;;;;;0.40;0.20;;;;;;;18.89;72.56;100251.28;4961690;28;20489;-51
2023/09/23 10:08:13;;;;;;;0.40;0.20;;;;;;;18.85;73.83;100250.63;4986934;28;20434;-51
2023/09/23 10:10:47;;;;;;;0.40;0.20;;;;;;;18.45;74.09;100249.53;4982698;28;20424;-52
2023/09/23 10:13:17;;;;;;;0.40;0.20;;;;;;;18.78;74.57;100245.72;4987282;28;20458;-51
2023/09/23 10:15:44;;;;;;;0.40;0.20;;;;;;;19.00;72.71;100238.00;4984033;28;20880;-51
2023/09/23 10:18:13;;;;;;;0.40;0.20;;;;;;;19.05;72.78;100238.59;4979794;28;20799;-51
2023/09/23 10:20:42;;;;;;;0.40;0.20;;;;;;;19.07;72.47;100231.25;4982423;28;20866;-52
2023/09/23 10:23:10;;;;;;;0.40;0.20;;;;;;;18.82;72.07;100237.34;4986591;28;20505;-52
2023/09/23 10:25:43;;;;;;;0.40;0.20;;;;;;;18.48;73.14;100235.84;4985023;28;20850;-53
2023/09/23 10:28:30;;;;;;;0.40;0.20;;;;;;;19.13;71.88;100225.47;4979755;28;20473;-53
2023/09/23 10:31:03;;;;;;;0.40;0.20;;;;;;;18.84;72.68;100237.25;4979988;28;20864;-53
2023/09/23 10:33:32;;;;;;;0.40;0.20;;;;;;;19.01;72.10;100234.34;4983057;28;20550;-52
2023/09/23 10:35:58;;;;;;;0.40;0.20;;;;;;;18.94;71.69;100243.78;4986455;28;20519;-52
2023/09/23 10:38:28;;;;;;;0.40;0.20;;;;;;;18.92;72.25;100240.34;4983677;28;20453;-52
2023/09/23 10:40:55;;;;;;;0.40;0.20;;;;;;;19.26;72.05;100233.63;4979407;28;20477;-52
2023/09/23 10:43:22;;;;;;;0.40;0.20;;;;;;;19.28;70.17;100233.50;4982077;28;20494;-53
2023/09/23 10:45:51;;;;;;;0.40;0.20;;;;;;;19.33;69.11;100231.41;4986037;28;20924;-52
2023/09/23 10:48:17;;;;;;;0.40;0.20;;;;;;;19.83;68.80;100233.44;4984520;28;20455;-53
2023/09/23 10:50:45;;;;;;;0.40;0.20;;;;;;;20.10;69.04;100233.38;4979477;28;20454;-52
2023/09/23 10:53:12;;;;;;;0.40;0.20;;;;;;;20.43;66.95;100227.50;4981810;28;20421;-52
2023/09/23 10:55:39;;;;;;;0.40;0.20;;;;;;;20.73;64.88;100229.00;4986101;28;20979;-52
2023/09/23 10:58:08;;;;;;;1.20;1.13;;;;;;;20.47;66.46;100234.41;4980215;28;20453;-53
2023/09/23 11:00:37;;;;;;;0.40;0.20;;;;;;;20.81;64.75;100232.00;4978346;28;20545;-52
2023/09/23 11:03:09;;;;;;;0.40;0.20;;;;;;;20.79;63.90;100234.81;4980601;28;20468;-52
2023/09/23 11:05:37;;;;;;;3.07;2.87;;;;;;;20.78;64.01;100238.50;4985407;28;20448;-53
2023/09/23 11:08:12;;;;;;;0.40;0.20;;;;;;;20.67;65.05;100230.28;4985945;28;20491;-52
2023/09/23 11:10:39;;;;;;;0.40;0.20;;;;;;;20.75;64.28;100236.03;4982198;28;20513;-53
2023/09/23 11:13:08;;;;;;;0.40;0.20;;;;;;;20.81;65.11;100246.38;4987983;28;20514;-53
2023/09/23 11:15:39;;;;;;;0.40;0.20;;;;;;;20.84;65.22;100245.31;4982066;28;20992;-53
2023/09/23 11:18:07;;;;;;;0.40;0.20;;;;;;;20.87;62.83;100245.94;4979398;28;20424;-53
2023/09/23 11:20:37;;;;;;;0.40;0.20;;;;;;;20.91;63.43;100242.03;4965136;28;20425;-53
2023/09/23 11:23:05;;;;;;;0.40;0.20;;;;;;;21.46;63.23;100248.84;4986179;28;20464;-52
2023/09/23 11:25:41;;;;;;;0.40;0.20;;;;;;;21.05;62.76;100246.44;4984155;28;20448;-53
2023/09/23 11:28:19;;;;;;;0.40;0.20;;;;;;;20.79;62.14;100258.28;4979151;28;20446;-53
2023/09/23 11:30:46;;;;;;;0.40;0.20;;;;;;;20.46;63.86;100254.28;4979041;28;20432;-52